createdAt,value
2017-09-01T00:00:50.461Z,88.26
2017-09-01T00:03:25.200Z,88.39
2017-09-01T00:05:59.896Z,88.53
2017-09-01T00:08:34.760Z,88.58
2017-09-01T00:11:09.451Z,88.41
2017-09-01T00:13:44.058Z,88.11
2017-09-01T00:16:18.841Z,87.68
2017-09-01T00:18:53.431Z,87.39
2017-09-01T00:21:28.642Z,87.36
2017-09-01T00:24:03.319Z,87.77
2017-09-01T00:26:38.153Z,88.29
2017-09-01T00:29:13.112Z,88.48
2017-09-01T00:31:47.727Z,88.55
2017-09-01T00:34:22.134Z,88.71
2017-09-01T00:36:56.969Z,88.45
2017-09-01T00:39:32.025Z,88.01
2017-09-01T00:42:06.406Z,87.93
2017-09-01T00:44:41.256Z,88.09
2017-09-01T00:47:16.208Z,87.84
2017-09-01T00:49:51.125Z,87.72
2017-09-01T00:52:25.424Z,87.56
2017-09-01T00:55:00.055Z,87.36
2017-09-01T00:57:34.751Z,87.08
2017-09-01T01:00:09.250Z,87.18
2017-09-01T01:02:44.252Z,87.18
2017-09-01T01:05:19.108Z,87.12
2017-09-01T01:07:53.753Z,87.16
2017-09-01T01:10:28.873Z,87.20
2017-09-01T01:13:03.501Z,87.36
2017-09-01T01:15:37.720Z,87.47
2017-09-01T01:18:12.500Z,87.63
2017-09-01T01:20:47.055Z,87.91
2017-09-01T01:23:21.762Z,88.00
2017-09-01T01:25:56.403Z,88.14
2017-09-01T01:28:31.115Z,88.21
2017-09-01T01:31:05.849Z,88.09
2017-09-01T01:33:41.107Z,87.76
2017-09-01T01:36:15.499Z,87.66
2017-09-01T01:38:49.952Z,87.61
2017-09-01T01:41:25.055Z,87.68
2017-09-01T01:43:59.832Z,87.57
2017-09-01T01:46:34.807Z,87.16
2017-09-01T01:49:09.416Z,87.06
2017-09-01T01:51:43.644Z,87.19
2017-09-01T01:54:18.286Z,87.40
2017-09-01T01:56:52.947Z,87.46
2017-09-01T01:59:27.699Z,87.47
2017-09-01T02:02:04.214Z,87.43
2017-09-01T02:04:38.339Z,87.62
2017-09-01T02:07:13.167Z,87.64
2017-09-01T02:09:47.591Z,87.57
2017-09-01T02:12:22.066Z,87.49
2017-09-01T02:14:58.164Z,87.42
2017-09-01T02:17:32.450Z,87.57
2017-09-01T02:20:07.043Z,87.61
2017-09-01T02:22:41.931Z,87.60
2017-09-01T02:25:16.603Z,87.48
2017-09-01T02:27:51.443Z,87.31
2017-09-01T02:30:26.130Z,87.21
2017-09-01T02:33:00.748Z,86.98
2017-09-01T02:35:35.399Z,86.74
2017-09-01T02:38:10.281Z,86.70
2017-09-01T02:40:45.146Z,86.60
2017-09-01T02:43:19.779Z,86.53
2017-09-01T02:45:54.697Z,86.36
2017-09-01T02:48:29.116Z,86.40
2017-09-01T02:51:03.935Z,86.35
2017-09-01T02:53:38.663Z,86.31
2017-09-01T02:56:13.963Z,86.38
2017-09-01T02:58:48.223Z,86.40
2017-09-01T03:01:22.834Z,86.66
2017-09-01T03:03:57.637Z,86.97
2017-09-01T03:06:31.730Z,87.21
2017-09-01T03:09:06.529Z,87.60
2017-09-01T03:11:41.187Z,87.66
2017-09-01T03:14:15.271Z,87.54
2017-09-01T03:16:49.868Z,87.57
2017-09-01T03:19:24.604Z,87.68
2017-09-01T03:22:00.028Z,87.85
2017-09-01T03:24:34.507Z,88.21
2017-09-01T03:27:09.068Z,89.83
2017-09-01T03:29:43.756Z,90.32
2017-09-01T03:32:18.400Z,90.62
2017-09-01T03:34:53.575Z,90.40
2017-09-01T03:37:28.633Z,90.33
2017-09-01T03:40:03.302Z,90.01
2017-09-01T03:42:37.888Z,89.87
2017-09-01T03:45:12.663Z,89.69
2017-09-01T03:47:47.667Z,89.44
2017-09-01T03:50:22.048Z,89.41
2017-09-01T03:52:56.623Z,89.90
2017-09-01T03:55:31.663Z,90.01
2017-09-01T03:58:06.502Z,89.88
2017-09-01T04:00:41.236Z,89.54
2017-09-01T04:03:15.972Z,89.57
2017-09-01T04:05:50.775Z,89.44
2017-09-01T04:08:25.529Z,89.70
2017-09-01T04:11:00.075Z,90.09
2017-09-01T04:13:34.935Z,89.97
2017-09-01T04:16:09.786Z,89.99
2017-09-01T04:18:45.655Z,90.02
2017-09-01T04:21:20.630Z,90.25
2017-09-01T04:23:55.535Z,89.69
2017-09-01T04:26:30.701Z,90.66
2017-09-01T04:29:05.030Z,90.58
2017-09-01T04:31:39.917Z,90.12
2017-09-01T04:34:15.478Z,90.15
2017-09-01T04:36:50.103Z,90.60
2017-09-01T04:39:24.750Z,89.90
2017-09-01T04:41:59.254Z,89.91
2017-09-01T04:44:34.119Z,90.33
2017-09-01T04:47:09.208Z,90.18
2017-09-01T04:49:44.808Z,89.93
2017-09-01T04:52:18.971Z,90.95
2017-09-01T04:54:53.843Z,90.39
2017-09-01T04:57:28.551Z,89.56
2017-09-01T05:00:02.859Z,88.53
2017-09-01T05:02:38.070Z,89.09
2017-09-01T05:05:12.503Z,88.51
2017-09-01T05:07:47.116Z,87.77
2017-09-01T05:10:21.626Z,88.13
2017-09-01T05:12:56.619Z,89.76
2017-09-01T05:15:31.471Z,90.02
2017-09-01T05:18:06.196Z,89.60
2017-09-01T05:20:40.940Z,88.86
2017-09-01T05:23:15.850Z,90.94
2017-09-01T05:25:50.667Z,91.40
2017-09-01T05:28:26.035Z,89.09
2017-09-01T05:31:01.854Z,88.81
2017-09-01T05:33:36.371Z,88.58
2017-09-01T05:36:10.871Z,88.92
2017-09-01T05:38:45.556Z,88.87
2017-09-01T05:41:20.510Z,89.07
2017-09-01T05:43:55.159Z,88.82
2017-09-01T05:46:31.170Z,88.80
2017-09-01T05:49:05.840Z,88.68
2017-09-01T05:51:40.940Z,88.36
2017-09-01T05:54:15.867Z,88.43
2017-09-01T05:56:51.294Z,88.51
2017-09-01T05:59:26.508Z,88.54
2017-09-01T06:02:01.235Z,88.90
2017-09-01T06:04:36.050Z,88.88
2017-09-01T06:07:11.087Z,88.90
2017-09-01T06:09:45.795Z,88.50
2017-09-01T06:12:21.440Z,88.07
2017-09-01T06:14:56.183Z,87.75
2017-09-01T06:17:30.894Z,88.54
2017-09-01T06:20:05.584Z,88.35
2017-09-01T06:22:40.062Z,88.36
2017-09-01T06:25:14.796Z,87.87
2017-09-01T06:27:49.747Z,87.73
2017-09-01T06:30:24.436Z,87.50
2017-09-01T06:32:59.376Z,87.10
2017-09-01T06:35:34.274Z,86.89
2017-09-01T06:38:08.844Z,86.36
2017-09-01T06:40:43.831Z,86.12
2017-09-01T06:43:18.640Z,86.59
2017-09-01T06:45:54.079Z,86.33
2017-09-01T06:48:28.788Z,85.54
2017-09-01T06:51:03.608Z,85.35
2017-09-01T06:53:38.851Z,84.54
2017-09-01T06:56:13.706Z,83.82
2017-09-01T06:58:49.010Z,83.47
2017-09-01T07:01:23.763Z,83.25
2017-09-01T07:03:58.556Z,82.26
2017-09-01T07:06:33.066Z,81.73
2017-09-01T07:09:08.092Z,80.99
2017-09-01T07:11:42.651Z,80.21
2017-09-01T07:14:17.636Z,79.49
2017-09-01T07:16:53.230Z,79.15
2017-09-01T07:19:28.123Z,77.45
2017-09-01T07:22:02.798Z,78.29
2017-09-01T07:24:37.944Z,78.07
2017-09-01T07:27:12.775Z,77.41
2017-09-01T07:29:47.654Z,76.61
2017-09-01T07:32:22.784Z,76.87
2017-09-01T07:34:57.714Z,76.08
2017-09-01T07:37:32.878Z,75.89
2017-09-01T07:40:08.390Z,75.71
2017-09-01T07:42:43.095Z,74.12
2017-09-01T07:45:18.275Z,73.82
2017-09-01T07:47:53.180Z,73.73
2017-09-01T07:50:28.219Z,72.81
2017-09-01T07:53:03.284Z,71.57
2017-09-01T07:55:38.287Z,70.99
2017-09-01T07:58:13.016Z,70.50
2017-09-01T08:00:47.887Z,68.42
2017-09-01T08:03:23.367Z,67.96
2017-09-01T08:05:58.475Z,69.47
2017-09-01T08:08:33.346Z,68.59
2017-09-01T08:11:08.198Z,68.37
2017-09-01T08:13:43.030Z,67.68
2017-09-01T08:16:17.663Z,66.69
2017-09-01T08:18:52.675Z,64.53
2017-09-01T08:21:27.483Z,64.98
2017-09-01T08:24:02.228Z,63.49
2017-09-01T08:26:37.146Z,63.38
2017-09-01T08:29:12.017Z,62.25
2017-09-01T08:31:46.919Z,60.14
2017-09-01T08:34:21.756Z,58.51
2017-09-01T08:36:56.474Z,57.89
2017-09-01T08:39:31.454Z,57.71
2017-09-01T08:42:06.397Z,57.72
2017-09-01T08:44:41.451Z,56.89
2017-09-01T08:47:17.347Z,56.84
2017-09-01T08:49:51.960Z,54.00
2017-09-01T08:52:26.690Z,53.42
2017-09-01T08:55:01.754Z,54.58
2017-09-01T08:57:37.060Z,54.72
2017-09-01T09:00:12.671Z,53.01
2017-09-01T09:02:47.421Z,53.21
2017-09-01T09:05:22.137Z,52.77
2017-09-01T09:07:56.970Z,51.32
2017-09-01T09:10:31.517Z,53.50
2017-09-01T09:13:06.264Z,54.49
2017-09-01T09:15:41.084Z,55.36
2017-09-01T09:18:16.047Z,55.44
2017-09-01T09:20:50.975Z,55.19
2017-09-01T09:23:26.743Z,54.13
2017-09-01T09:26:01.484Z,53.83
2017-09-01T09:28:36.205Z,52.58
2017-09-01T09:31:10.934Z,52.53
2017-09-01T09:33:45.963Z,50.05
2017-09-01T09:36:20.717Z,48.03
2017-09-01T09:38:55.400Z,48.65
2017-09-01T09:41:30.355Z,48.78
2017-09-01T09:44:05.068Z,48.69
2017-09-01T09:46:39.694Z,49.07
2017-09-01T09:49:14.606Z,49.42
2017-09-01T09:51:49.348Z,49.85
2017-09-01T09:54:24.958Z,49.19
2017-09-01T09:57:00.963Z,47.78
2017-09-01T09:59:36.862Z,48.46
2017-09-01T10:02:11.356Z,48.10
2017-09-01T10:04:47.499Z,47.17
2017-09-01T10:07:22.115Z,47.85
2017-09-01T10:09:57.012Z,49.16
2017-09-01T10:12:31.771Z,48.07
2017-09-01T10:15:07.194Z,48.50
2017-09-01T10:17:42.346Z,48.83
2017-09-01T10:20:16.987Z,49.69
2017-09-01T10:22:52.299Z,49.75
2017-09-01T10:25:26.746Z,48.98
2017-09-01T10:28:00.813Z,47.35
2017-09-01T10:30:35.944Z,48.44
2017-09-01T10:33:10.779Z,48.90
2017-09-01T10:35:45.579Z,48.73
2017-09-01T10:38:20.407Z,48.95
2017-09-01T10:40:55.050Z,47.77
2017-09-01T10:43:29.840Z,47.51
2017-09-01T10:46:04.516Z,47.17
2017-09-01T10:48:50.664Z,47.63
2017-09-01T10:54:37.232Z,46.13
2017-09-01T10:57:23.231Z,45.03
2017-09-01T10:59:57.963Z,46.11
2017-09-01T11:02:33.483Z,45.72
2017-09-01T11:05:08.248Z,46.86
2017-09-01T11:07:43.091Z,47.59
2017-09-01T11:10:17.828Z,47.25
2017-09-01T11:12:52.538Z,48.39
2017-09-01T11:15:27.342Z,48.02
2017-09-01T11:18:02.080Z,47.96
2017-09-01T11:23:55.463Z,49.02
2017-09-01T11:26:30.306Z,49.28
2017-09-01T11:29:05.438Z,50.49
2017-09-01T11:31:40.139Z,50.01
2017-09-01T11:34:14.904Z,49.14
2017-09-01T11:36:49.723Z,49.34
2017-09-01T11:39:24.474Z,49.61
2017-09-01T11:41:59.283Z,47.94
2017-09-01T11:44:34.315Z,48.40
2017-09-01T11:47:09.482Z,50.19
2017-09-01T11:49:44.272Z,49.45
2017-09-01T11:52:19.188Z,48.85
2017-09-01T11:54:54.223Z,46.87
2017-09-01T11:57:29.505Z,48.11
2017-09-01T12:00:04.140Z,45.73
2017-09-01T12:02:40.092Z,45.23
2017-09-01T12:05:14.687Z,45.57
2017-09-01T12:07:50.495Z,45.57
2017-09-01T12:10:25.404Z,43.94
2017-09-01T12:13:01.068Z,44.72
2017-09-01T12:15:35.679Z,45.26
2017-09-01T12:18:11.395Z,46.01
2017-09-01T12:20:46.392Z,46.03
2017-09-01T12:23:20.878Z,45.81
2017-09-01T12:25:55.568Z,46.54
2017-09-01T12:28:30.395Z,47.13
2017-09-01T12:31:05.247Z,47.36
2017-09-01T12:33:39.953Z,47.06
2017-09-01T12:36:14.521Z,47.49
2017-09-01T12:38:49.234Z,47.78
2017-09-01T12:41:23.591Z,48.06
2017-09-01T12:43:58.511Z,48.19
2017-09-01T12:46:33.195Z,48.25
2017-09-01T12:49:07.952Z,48.15
2017-09-01T12:51:42.635Z,46.87
2017-09-01T12:54:17.404Z,47.85
2017-09-01T12:56:53.292Z,48.64
2017-09-01T12:59:27.979Z,48.83
2017-09-01T13:02:02.651Z,49.51
2017-09-01T13:04:37.272Z,49.06
2017-09-01T13:07:11.947Z,50.68
2017-09-01T13:09:46.760Z,49.93
2017-09-01T13:12:21.416Z,49.42
2017-09-01T13:14:56.140Z,49.02
2017-09-01T13:17:30.972Z,49.41
2017-09-01T13:20:05.756Z,49.49
2017-09-01T13:22:40.243Z,49.41
2017-09-01T13:25:15.004Z,50.01
2017-09-01T13:27:49.712Z,49.08
2017-09-01T13:30:24.355Z,49.22
2017-09-01T13:32:59.052Z,49.16
2017-09-01T13:35:33.995Z,48.32
2017-09-01T13:38:08.803Z,48.87
2017-09-01T13:40:43.531Z,48.59
2017-09-01T13:43:18.256Z,49.95
2017-09-01T13:45:53.116Z,49.92
2017-09-01T13:48:27.945Z,50.40
2017-09-01T13:51:02.571Z,51.47
2017-09-01T13:53:36.996Z,51.79
2017-09-01T13:56:11.924Z,51.79
2017-09-01T13:58:46.620Z,52.09
2017-09-01T14:01:21.290Z,52.24
2017-09-01T14:03:56.019Z,53.23
2017-09-01T14:06:30.739Z,52.93
2017-09-01T14:09:04.843Z,52.36
2017-09-01T14:11:40.191Z,52.76
2017-09-01T14:14:14.950Z,52.75
2017-09-01T14:16:49.970Z,52.89
2017-09-01T14:19:25.579Z,52.80
2017-09-01T14:22:00.431Z,52.77
2017-09-01T14:24:35.148Z,52.18
2017-09-01T14:27:10.037Z,51.68
2017-09-01T14:29:44.676Z,50.94
2017-09-01T14:32:19.347Z,50.33
2017-09-01T14:34:54.216Z,48.82
2017-09-01T14:37:29.536Z,48.95
2017-09-01T14:40:04.299Z,49.69
2017-09-01T14:42:39.332Z,49.79
2017-09-01T14:45:14.815Z,50.00
2017-09-01T14:47:49.547Z,50.49
2017-09-01T14:50:24.365Z,47.92
2017-09-01T14:52:59.241Z,48.92
2017-09-01T14:55:34.092Z,48.71
2017-09-01T14:58:08.813Z,49.61
2017-09-01T15:00:43.520Z,48.93
2017-09-01T15:03:18.258Z,49.71
2017-09-01T15:05:53.075Z,49.64
2017-09-01T15:08:27.836Z,50.14
2017-09-01T15:11:03.441Z,49.76
2017-09-01T15:13:38.283Z,50.12
2017-09-01T15:16:13.078Z,50.25
2017-09-01T15:18:47.810Z,50.31
2017-09-01T15:21:25.534Z,51.03
2017-09-01T15:24:00.576Z,52.04
2017-09-01T15:26:35.311Z,53.14
2017-09-01T15:29:10.380Z,53.37
2017-09-01T15:31:45.345Z,53.96
2017-09-01T15:34:20.216Z,54.05
2017-09-01T15:36:55.267Z,53.67
2017-09-01T15:39:30.196Z,53.50
2017-09-01T15:42:05.100Z,53.77
2017-09-01T15:44:39.819Z,54.04
2017-09-01T15:47:14.685Z,51.83
2017-09-01T15:49:49.536Z,53.03
2017-09-01T15:52:24.335Z,54.06
2017-09-01T15:54:59.067Z,54.01
2017-09-01T15:57:33.891Z,53.71
2017-09-01T16:00:08.284Z,54.01
2017-09-01T16:02:43.151Z,55.24
2017-09-01T16:05:17.958Z,54.93
2017-09-01T16:07:52.851Z,55.28
2017-09-01T16:10:27.643Z,55.26
2017-09-01T16:13:02.386Z,56.10
2017-09-01T16:15:37.311Z,56.18
2017-09-01T16:18:12.210Z,56.20
2017-09-01T16:20:46.999Z,55.88
2017-09-01T16:23:21.783Z,54.99
2017-09-01T16:25:56.448Z,55.26
2017-09-01T16:28:31.238Z,56.09
2017-09-01T16:31:06.120Z,56.81
2017-09-01T16:33:40.933Z,56.94
2017-09-01T16:36:15.875Z,56.93
2017-09-01T16:38:50.514Z,57.08
2017-09-01T16:41:25.354Z,56.39
2017-09-01T16:44:00.059Z,56.46
2017-09-01T16:46:34.803Z,55.79
2017-09-01T16:49:09.624Z,56.62
2017-09-01T16:51:44.529Z,56.50
2017-09-01T16:54:19.223Z,54.34
2017-09-01T16:56:53.976Z,55.78
2017-09-01T16:59:29.044Z,55.53
2017-09-01T17:02:03.874Z,55.59
2017-09-01T17:04:38.696Z,55.66
2017-09-01T17:07:13.667Z,54.73
2017-09-01T17:09:48.543Z,55.42
2017-09-01T17:12:23.415Z,55.42
2017-09-01T17:14:58.241Z,54.42
2017-09-01T17:17:32.974Z,54.65
2017-09-01T17:20:07.844Z,55.27
2017-09-01T17:22:42.706Z,55.54
2017-09-01T17:25:17.451Z,55.55
2017-09-01T17:27:52.300Z,55.43
2017-09-01T17:30:26.996Z,55.97
2017-09-01T17:33:03.795Z,56.44
2017-09-01T17:35:38.479Z,56.78
2017-09-01T17:38:13.435Z,56.87
2017-09-01T17:40:48.285Z,57.24
2017-09-01T17:43:23.096Z,57.35
2017-09-01T17:45:57.990Z,57.31
2017-09-01T17:48:32.894Z,57.48
2017-09-01T17:51:07.727Z,57.70
2017-09-01T17:53:42.756Z,57.96
2017-09-01T17:56:17.966Z,58.39
2017-09-01T17:58:53.054Z,58.60
2017-09-01T18:01:27.813Z,58.65
2017-09-01T18:04:02.491Z,58.69
2017-09-01T18:06:37.179Z,58.64
2017-09-01T18:09:12.123Z,59.00
2017-09-01T18:11:46.740Z,59.39
2017-09-01T18:14:21.939Z,59.88
2017-09-01T18:16:57.311Z,60.16
2017-09-01T18:19:31.955Z,60.59
2017-09-01T18:22:06.752Z,60.62
2017-09-01T18:24:41.367Z,61.09
2017-09-01T18:27:16.316Z,61.10
2017-09-01T18:29:51.043Z,61.25
2017-09-01T18:32:25.680Z,61.33
2017-09-01T18:35:00.301Z,61.44
2017-09-01T18:37:35.067Z,61.54
2017-09-01T18:40:09.692Z,61.73
2017-09-01T18:42:44.239Z,61.97
2017-09-01T18:45:18.852Z,62.40
2017-09-01T18:47:53.668Z,62.83
2017-09-01T18:50:28.523Z,63.03
2017-09-01T18:53:03.068Z,63.03
2017-09-01T18:55:37.888Z,62.99
2017-09-01T18:58:12.612Z,63.01
2017-09-01T19:00:47.772Z,63.19
2017-09-01T19:03:22.523Z,63.40
2017-09-01T19:05:57.478Z,63.57
2017-09-01T19:08:32.194Z,63.53
2017-09-01T19:11:06.927Z,64.06
2017-09-01T19:13:41.819Z,64.47
2017-09-01T19:16:16.540Z,64.46
2017-09-01T19:18:51.330Z,64.63
2017-09-01T19:21:26.147Z,64.63
2017-09-01T19:24:01.187Z,64.73
2017-09-01T19:26:36.137Z,64.90
2017-09-01T19:29:10.904Z,65.01
2017-09-01T19:31:45.712Z,64.98
2017-09-01T19:34:20.754Z,64.91
2017-09-01T19:36:55.872Z,64.99
2017-09-01T19:39:30.791Z,65.09
2017-09-01T19:42:05.752Z,65.37
2017-09-01T19:44:40.697Z,65.49
2017-09-01T19:47:15.612Z,65.52
2017-09-01T19:49:50.080Z,65.72
2017-09-01T19:52:24.710Z,65.87
2017-09-01T19:54:59.431Z,65.77
2017-09-01T19:57:34.143Z,66.01
2017-09-01T20:00:08.839Z,66.20
2017-09-01T20:02:43.656Z,66.40
2017-09-01T20:05:18.546Z,66.52
2017-09-01T20:07:53.012Z,66.98
2017-09-01T20:10:29.074Z,67.26
2017-09-01T20:13:03.435Z,68.02
2017-09-01T20:15:38.344Z,68.57
2017-09-01T20:18:12.955Z,68.28
2017-09-01T20:20:47.804Z,67.94
2017-09-01T20:23:22.526Z,67.60
2017-09-01T20:25:57.460Z,67.33
2017-09-01T20:28:32.367Z,67.41
2017-09-01T20:31:07.019Z,67.52
2017-09-01T20:33:41.942Z,67.33
2017-09-01T20:36:16.775Z,67.17
2017-09-01T20:38:51.686Z,67.23
2017-09-01T20:41:26.647Z,67.38
2017-09-01T20:44:01.413Z,67.11
2017-09-01T20:46:36.379Z,66.97
2017-09-01T20:49:11.256Z,66.86
2017-09-01T20:51:46.972Z,66.89
2017-09-01T20:54:22.562Z,67.24
2017-09-01T20:56:57.363Z,67.15
2017-09-01T20:59:32.129Z,66.88
2017-09-01T21:02:07.777Z,66.76
2017-09-01T21:04:42.359Z,66.67
2017-09-01T21:07:17.155Z,66.53
2017-09-01T21:09:51.944Z,66.40
2017-09-01T21:12:26.369Z,66.37
2017-09-01T21:15:01.582Z,66.38
2017-09-01T21:17:36.376Z,66.51
2017-09-01T21:20:11.552Z,66.48
2017-09-01T21:22:46.328Z,66.48
2017-09-01T21:25:21.162Z,66.57
2017-09-01T21:27:55.858Z,66.56
2017-09-01T21:30:30.715Z,66.70
2017-09-01T21:33:05.671Z,67.43
2017-09-01T21:35:40.852Z,67.45
2017-09-01T21:38:15.771Z,67.64
2017-09-01T21:40:50.728Z,67.37
2017-09-01T21:43:25.546Z,67.41
2017-09-01T21:46:00.267Z,67.39
2017-09-01T21:48:35.011Z,67.43
2017-09-01T21:51:10.059Z,67.39
2017-09-01T21:53:44.932Z,67.39
2017-09-01T21:56:19.804Z,67.27
2017-09-01T21:58:54.756Z,67.16
2017-09-01T22:01:32.876Z,66.91
2017-09-01T22:04:07.888Z,67.02
2017-09-01T22:06:42.634Z,66.88
2017-09-01T22:09:17.227Z,66.83
2017-09-01T22:11:51.871Z,66.97
2017-09-01T22:14:26.493Z,66.93
2017-09-01T22:17:01.380Z,66.84
2017-09-01T22:19:35.870Z,66.87
2017-09-01T22:22:10.583Z,66.89
2017-09-01T22:24:45.216Z,66.87
2017-09-01T22:27:19.919Z,66.89
2017-09-01T22:29:54.732Z,66.83
2017-09-01T22:32:29.347Z,66.91
2017-09-01T22:35:04.040Z,66.90
2017-09-01T22:37:38.934Z,66.87
2017-09-01T22:40:13.684Z,66.91
2017-09-01T22:42:48.388Z,66.90
2017-09-01T22:45:23.026Z,66.97
2017-09-01T22:47:57.751Z,67.10
2017-09-01T22:50:32.387Z,67.00
2017-09-01T22:53:07.102Z,67.08
2017-09-01T22:55:42.043Z,67.00
2017-09-01T22:58:17.044Z,67.10
2017-09-01T23:00:51.847Z,67.22
2017-09-01T23:03:26.719Z,67.14
2017-09-01T23:06:01.422Z,66.81
2017-09-01T23:08:35.954Z,66.75
2017-09-01T23:11:10.716Z,66.79
2017-09-01T23:13:45.443Z,66.90
2017-09-01T23:16:20.243Z,67.03
2017-09-01T23:18:55.223Z,66.97
2017-09-01T23:21:29.823Z,66.97
2017-09-01T23:24:04.503Z,67.14
2017-09-01T23:26:39.331Z,67.26
2017-09-01T23:29:14.156Z,67.30
2017-09-01T23:31:48.862Z,67.27
2017-09-01T23:34:23.535Z,67.35
2017-09-01T23:36:58.060Z,67.70
2017-09-01T23:39:32.747Z,67.90
2017-09-01T23:42:07.507Z,67.80
2017-09-01T23:44:42.246Z,67.57
2017-09-01T23:47:16.939Z,67.65
2017-09-01T23:49:51.663Z,67.87
2017-09-01T23:52:26.368Z,68.10
2017-09-01T23:55:01.042Z,68.42
2017-09-01T23:57:35.775Z,68.54
